Aviation Digital Data Service (ADDS)

Output produced by METARs form (2124 UTC 21 November 2017)
found at http://aviationweather.gov/adds/metars/
 
KHDC 212115Z AUTO 00000KT 10SM SCT036 20/12 A2996 RMK AO2